Time;durP1;ratioP1;P1;durP2;ratioP2;P2;SDS_P1;SDS_P2;PMS_P1;PMS_P2;Temp;Humidity;BMP_temperature;BMP_pressure;BME280_temperature;BME280_humidity;BME280_pressure;Samples;Min_cycle;Max_cycle;Signal;HPM_P1;HPM_P2
2021/01/04 00:00:43;;;;;;;;;;;19.70;56.10;;;;;;5036009;28;1456;-66
2021/01/04 00:03:41;;;;;;;;;;;19.70;56.10;;;;;;5017057;28;1726;-66
2021/01/04 00:06:06;;;;;;;;;;;19.70;56.10;;;;;;4990146;28;1751;-65
2021/01/04 00:08:35;;;;;;;;;;;19.70;56.10;;;;;;5033858;28;1434;-66
2021/01/04 00:11:01;;;;;;;;;;;19.70;56.10;;;;;;5016730;28;1698;-66
2021/01/04 00:13:29;;;;;;;;;;;19.70;56.10;;;;;;5027801;28;1502;-66
2021/01/04 00:16:09;;;;;;;;;;;19.70;56.20;;;;;;4996394;28;1932;-66
2021/01/04 00:18:41;;;;;;;;;;;19.70;56.20;;;;;;4996541;28;1632;-66
2021/01/04 00:21:16;;;;;;;;;;;19.70;56.20;;;;;;4996779;28;1580;-66
2021/01/04 00:24:00;;;;;;;;;;;19.70;56.20;;;;;;4996292;28;1423;-66
2021/01/04 00:26:27;;;;;;;;;;;19.70;56.20;;;;;;5013749;28;1634;-66
2021/01/04 00:28:53;;;;;;;;;;;19.60;56.20;;;;;;4996528;28;1422;-66
2021/01/04 00:31:29;;;;;;;;;;;19.70;56.20;;;;;;4996411;28;1382;-66
2021/01/04 00:33:55;;;;;;;;;;;19.60;56.20;;;;;;5013435;28;1303;-66
2021/01/04 00:36:23;;;;;;;;;;;19.60;56.20;;;;;;4995709;28;1894;-66
2021/01/04 00:38:55;;;;;;;;;;;19.60;56.20;;;;;;4996136;28;1284;-66
2021/01/04 00:41:29;;;;;;;;;;;19.70;56.30;;;;;;5013710;28;1375;-66
2021/01/04 00:43:55;;;;;;;;;;;19.70;56.30;;;;;;4996164;28;1710;-66
2021/01/04 00:46:21;;;;;;;;;;;19.60;56.30;;;;;;4995620;28;1163;-66
2021/01/04 00:49:07;;;;;;;;;;;19.60;56.30;;;;;;4980378;28;1671;-66
2021/01/04 00:51:33;;;;;;;;;;;19.60;56.30;;;;;;4995793;28;1680;-66
2021/01/04 00:53:58;;;;;;;;;;;19.60;56.30;;;;;;5013090;28;1693;-66
2021/01/04 00:56:59;;;;;;;;;;;19.60;56.30;;;;;;5011774;28;1972;-68
2021/01/04 00:59:31;;;;;;;;;;;19.60;56.30;;;;;;4924484;29;1123;-66
2021/01/04 01:02:15;;;;;;;;;;;19.60;56.40;;;;;;4988370;28;1643;-66
2021/01/04 01:04:59;;;;;;;;;;;19.60;56.40;;;;;;5012686;28;1404;-66
2021/01/04 01:07:43;;;;;;;;;;;19.60;56.40;;;;;;5012758;28;1673;-66
2021/01/04 01:10:09;;;;;;;;;;;19.60;56.40;;;;;;5013371;28;1685;-66
2021/01/04 01:12:34;;;;;;;;;;;19.60;56.40;;;;;;5012280;28;1419;-66
2021/01/04 01:15:04;;;;;;;;;;;19.60;56.40;;;;;;5012926;28;1350;-66
2021/01/04 01:17:49;;;;;;;;;;;19.60;56.40;;;;;;5012499;28;1962;-66
2021/01/04 01:20:17;;;;;;;;;;;19.60;56.40;;;;;;5001898;28;1690;-66
2021/01/04 01:22:43;;;;;;;;;;;19.60;56.40;;;;;;5011709;28;1531;-66
2021/01/04 01:25:29;;;;;;;;;;;19.60;56.50;;;;;;5011811;28;1399;-65
2021/01/04 01:27:57;;;;;;;;;;;19.60;56.50;;;;;;5012473;28;1670;-66
2021/01/04 01:30:29;;;;;;;;;;;19.60;56.50;;;;;;5013176;28;1741;-66
2021/01/04 01:32:54;;;;;;;;;;;19.60;56.50;;;;;;5012717;28;1723;-66
2021/01/04 01:35:20;;;;;;;;;;;19.60;56.50;;;;;;5012786;28;1409;-67
2021/01/04 01:38:04;;;;;;;;;;;19.60;56.50;;;;;;5012896;28;2004;-66
2021/01/04 01:40:48;;;;;;;;;;;19.60;56.50;;;;;;5013285;28;1395;-66
2021/01/04 01:43:34;;;;;;;;;;;19.60;56.50;;;;;;5012530;28;1724;-66
2021/01/04 01:46:02;;;;;;;;;;;19.60;56.50;;;;;;5011809;28;1775;-66
2021/01/04 01:48:32;;;;;;;;;;;19.60;56.50;;;;;;5011900;28;1451;-66
2021/01/04 01:51:01;;;;;;;;;;;19.60;56.50;;;;;;5003673;28;1558;-66
2021/01/04 01:53:44;;;;;;;;;;;19.60;56.50;;;;;;4991704;28;1443;-66
2021/01/04 01:56:15;;;;;;;;;;;19.60;56.50;;;;;;5008423;28;1903;-66
2021/01/04 01:58:50;;;;;;;;;;;19.60;56.60;;;;;;5007956;28;1723;-66
2021/01/04 02:01:36;;;;;;;;;;;19.60;56.60;;;;;;4993049;28;1421;-65
2021/01/04 02:04:06;;;;;;;;;;;19.60;56.60;;;;;;5007909;28;1313;-66
2021/01/04 02:06:51;;;;;;;;;;;19.60;56.60;;;;;;4991149;28;1665;-67
2021/01/04 02:09:19;;;;;;;;;;;19.60;56.60;;;;;;4991964;28;1436;-67
2021/01/04 02:11:47;;;;;;;;;;;19.60;56.60;;;;;;5008661;28;1424;-67
2021/01/04 02:14:12;;;;;;;;;;;19.60;56.60;;;;;;5007398;28;1439;-67
2021/01/04 02:16:54;;;;;;;;;;;19.60;56.60;;;;;;4992574;28;1899;-66
2021/01/04 02:19:27;;;;;;;;;;;19.60;56.60;;;;;;5007846;28;1707;-66
2021/01/04 02:21:53;;;;;;;;;;;19.50;56.60;;;;;;5008281;28;1666;-66
2021/01/04 02:24:22;;;;;;;;;;;19.50;56.60;;;;;;4992410;28;1390;-67
2021/01/04 02:26:52;;;;;;;;;;;19.50;56.60;;;;;;4992280;28;1129;-66
2021/01/04 02:29:18;;;;;;;;;;;19.60;56.70;;;;;;5007799;28;1710;-66
2021/01/04 02:31:46;;;;;;;;;;;19.60;56.70;;;;;;5008024;28;1439;-66
2021/01/04 02:34:12;;;;;;;;;;;19.50;56.60;;;;;;5007529;28;1319;-65
2021/01/04 02:36:38;;;;;;;;;;;19.50;56.70;;;;;;4990570;28;1918;-66
2021/01/04 02:39:04;;;;;;;;;;;19.50;56.60;;;;;;5007687;28;1405;-65
2021/01/04 02:41:52;;;;;;;;;;;19.50;56.60;;;;;;4992750;28;1387;-66
2021/01/04 02:44:24;;;;;;;;;;;19.60;56.70;;;;;;4984654;28;1731;-65
2021/01/04 02:46:51;;;;;;;;;;;19.60;56.70;;;;;;4990388;28;1302;-66
2021/01/04 02:49:21;;;;;;;;;;;19.60;56.60;;;;;;5008193;28;1751;-66
2021/01/04 02:51:47;;;;;;;;;;;19.60;56.60;;;;;;5007826;28;1550;-66
2021/01/04 02:54:14;;;;;;;;;;;19.60;56.60;;;;;;5010272;28;1729;-65
2021/01/04 02:56:52;;;;;;;;;;;19.60;56.50;;;;;;5010339;28;1910;-65
2021/01/04 02:59:17;;;;;;;;;;;19.60;56.50;;;;;;4980844;28;1643;-65
2021/01/04 03:02:03;;;;;;;;;;;19.60;56.50;;;;;;4996652;28;1685;-65
2021/01/04 03:04:29;;;;;;;;;;;19.60;56.40;;;;;;5015009;28;1208;-66
2021/01/04 03:06:58;;;;;;;;;;;19.60;56.40;;;;;;5013615;28;1501;-66
2021/01/04 03:09:25;;;;;;;;;;;19.60;56.40;;;;;;5014100;28;1647;-66
2021/01/04 03:11:50;;;;;;;;;;;19.70;56.40;;;;;;5015464;28;1674;-66
2021/01/04 03:14:23;;;;;;;;;;;19.70;56.40;;;;;;5003101;28;1546;-66
2021/01/04 03:16:55;;;;;;;;;;;19.70;56.40;;;;;;4993848;28;1962;-66
2021/01/04 03:19:21;;;;;;;;;;;19.70;56.40;;;;;;5006648;28;1673;-66
2021/01/04 03:21:55;;;;;;;;;;;19.70;56.40;;;;;;4995393;28;1205;-66
2021/01/04 03:24:21;;;;;;;;;;;19.70;56.40;;;;;;4994895;28;1399;-66
2021/01/04 03:26:47;;;;;;;;;;;19.70;56.40;;;;;;5014273;28;1378;-66
2021/01/04 03:29:13;;;;;;;;;;;19.70;56.40;;;;;;5014201;28;1427;-66
2021/01/04 03:31:38;;;;;;;;;;;19.70;56.30;;;;;;5014180;28;1411;-65
2021/01/04 03:34:04;;;;;;;;;;;19.70;56.20;;;;;;5014263;28;1413;-66
2021/01/04 03:36:29;;;;;;;;;;;19.70;56.30;;;;;;5013283;28;1898;-65
2021/01/04 03:38:55;;;;;;;;;;;19.70;56.20;;;;;;4997556;28;1220;-66
2021/01/04 03:41:21;;;;;;;;;;;19.70;56.30;;;;;;5002092;28;1185;-66
2021/01/04 03:43:46;;;;;;;;;;;19.70;56.30;;;;;;5014214;28;1357;-66
2021/01/04 03:46:12;;;;;;;;;;;19.70;56.30;;;;;;5013889;28;1372;-67
2021/01/04 03:48:37;;;;;;;;;;;19.70;56.30;;;;;;4996977;28;1126;-67
2021/01/04 03:51:03;;;;;;;;;;;19.70;56.30;;;;;;4985538;28;1944;-65
2021/01/04 03:53:29;;;;;;;;;;;19.70;56.30;;;;;;5009925;28;1263;-66
2021/01/04 03:55:54;;;;;;;;;;;19.70;56.30;;;;;;5015619;28;1977;-66
2021/01/04 03:58:19;;;;;;;;;;;19.70;56.30;;;;;;5032778;28;1398;-65
2021/01/04 04:00:45;;;;;;;;;;;19.70;56.30;;;;;;5014634;28;1089;-66
2021/01/04 04:03:10;;;;;;;;;;;19.70;56.30;;;;;;5014062;28;1240;-66
2021/01/04 04:05:36;;;;;;;;;;;19.70;56.30;;;;;;5013999;28;1384;-66
2021/01/04 04:08:02;;;;;;;;;;;19.70;56.30;;;;;;5014459;28;1136;-66
2021/01/04 04:10:27;;;;;;;;;;;19.70;56.30;;;;;;4996960;28;1054;-65
2021/01/04 04:12:52;;;;;;;;;;;19.70;56.30;;;;;;5016697;28;1256;-66
2021/01/04 04:15:18;;;;;;;;;;;19.70;56.40;;;;;;4996153;28;1311;-65
2021/01/04 04:17:44;;;;;;;;;;;19.70;56.30;;;;;;5013883;28;1965;-65
2021/01/04 04:20:10;;;;;;;;;;;19.70;56.30;;;;;;4996687;28;1156;-65
2021/01/04 04:22:35;;;;;;;;;;;19.70;56.30;;;;;;5014541;28;1081;-66
2021/01/04 04:25:05;;;;;;;;;;;19.70;56.30;;;;;;5013528;28;1316;-65
2021/01/04 04:27:31;;;;;;;;;;;19.70;56.30;;;;;;5013900;28;1159;-66
2021/01/04 04:29:56;;;;;;;;;;;19.70;56.30;;;;;;5013809;28;1191;-66
2021/01/04 04:32:23;;;;;;;;;;;19.70;56.30;;;;;;5013926;28;1106;-65
2021/01/04 04:34:48;;;;;;;;;;;19.70;56.30;;;;;;5013162;28;1239;-66
2021/01/04 04:37:14;;;;;;;;;;;19.70;56.40;;;;;;4996363;28;1902;-66
2021/01/04 04:39:39;;;;;;;;;;;19.70;56.30;;;;;;5013876;28;1345;-67
2021/01/04 04:42:08;;;;;;;;;;;19.70;56.30;;;;;;5013909;28;1466;-66
2021/01/04 04:44:41;;;;;;;;;;;19.70;56.30;;;;;;4995392;28;1300;-66
2021/01/04 04:47:07;;;;;;;;;;;19.70;56.40;;;;;;5013220;28;1089;-66
2021/01/04 04:49:51;;;;;;;;;;;19.70;56.30;;;;;;5013439;28;1066;-66
2021/01/04 04:52:28;;;;;;;;;;;19.70;56.30;;;;;;5013197;28;1202;-66
2021/01/04 04:54:56;;;;;;;;;;;19.70;56.40;;;;;;5012825;28;1197;-66
2021/01/04 04:57:41;;;;;;;;;;;19.70;56.40;;;;;;5012797;28;1906;-66
2021/01/04 05:00:07;;;;;;;;;;;19.70;56.40;;;;;;5013297;28;1297;-66
2021/01/04 05:02:36;;;;;;;;;;;19.70;56.30;;;;;;5013602;28;1370;-66
2021/01/04 05:05:20;;;;;;;;;;;19.70;56.30;;;;;;5012040;28;1310;-66
2021/01/04 05:07:48;;;;;;;;;;;19.70;56.40;;;;;;5013317;28;1125;-66
2021/01/04 05:10:33;;;;;;;;;;;19.70;56.40;;;;;;5012059;28;1374;-67
2021/01/04 05:13:17;;;;;;;;;;;19.70;56.40;;;;;;5011919;28;1332;-66
2021/01/04 05:15:54;;;;;;;;;;;19.70;56.40;;;;;;5000700;28;1953;-66
2021/01/04 05:18:22;;;;;;;;;;;19.70;56.40;;;;;;5012744;28;1298;-67
2021/01/04 05:21:03;;;;;;;;;;;19.70;56.40;;;;;;5013276;28;1315;-66
2021/01/04 05:23:31;;;;;;;;;;;19.70;56.40;;;;;;5001632;28;1213;-66
2021/01/04 05:25:59;;;;;;;;;;;19.70;56.40;;;;;;5012873;28;1092;-66
2021/01/04 05:28:37;;;;;;;;;;;19.70;56.40;;;;;;5013159;28;1406;-66
2021/01/04 05:31:21;;;;;;;;;;;19.70;56.30;;;;;;5012266;28;1305;-66
2021/01/04 05:33:59;;;;;;;;;;;19.70;56.40;;;;;;5012437;28;1361;-66
2021/01/04 05:36:56;;;;;;;;;;;19.70;56.40;;;;;;5000857;28;1902;-66
2021/01/04 05:39:29;;;;;;;;;;;19.70;56.40;;;;;;4979227;28;1283;-67
2021/01/04 05:42:00;;;;;;;;;;;19.70;56.30;;;;;;5011366;28;1144;-65
2021/01/04 05:44:37;;;;;;;;;;;19.70;56.40;;;;;;5011356;28;1239;-66
2021/01/04 05:47:23;;;;;;;;;;;19.70;56.40;;;;;;5011195;28;1061;-65
2021/01/04 05:49:50;;;;;;;;;;;19.70;56.40;;;;;;5011863;28;1077;-66
2021/01/04 05:52:16;;;;;;;;;;;19.70;56.40;;;;;;4992873;28;1342;-66
2021/01/04 05:54:41;;;;;;;;;;;19.70;56.40;;;;;;5003533;28;1285;-65
2021/01/04 05:57:08;;;;;;;;;;;19.70;56.40;;;;;;4992582;28;1903;-65
2021/01/04 05:59:33;;;;;;;;;;;19.70;56.40;;;;;;5002995;28;1192;-65
2021/01/04 06:02:02;;;;;;;;;;;19.70;56.40;;;;;;5011188;28;1311;-66
2021/01/04 06:04:28;;;;;;;;;;;19.70;56.40;;;;;;5010930;28;1738;-66
2021/01/04 06:06:54;;;;;;;;;;;19.70;56.30;;;;;;5012224;28;1124;-66
2021/01/04 06:09:20;;;;;;;;;;;19.70;56.30;;;;;;5012486;28;1103;-65
2021/01/04 06:11:49;;;;;;;;;;;19.70;56.30;;;;;;4985695;28;1337;-66
2021/01/04 06:14:15;;;;;;;;;;;19.80;56.40;;;;;;4987528;28;1215;-66
2021/01/04 06:16:42;;;;;;;;;;;19.80;56.40;;;;;;4997079;28;1969;-66
2021/01/04 06:19:12;;;;;;;;;;;19.70;56.40;;;;;;5010120;28;1360;-66
2021/01/04 06:21:42;;;;;;;;;;;19.80;56.40;;;;;;5009861;28;1619;-66
2021/01/04 06:24:08;;;;;;;;;;;19.70;56.40;;;;;;5010616;28;1776;-65
2021/01/04 06:26:34;;;;;;;;;;;19.70;56.40;;;;;;5010594;28;1335;-64
2021/01/04 06:29:03;;;;;;;;;;;19.70;56.40;;;;;;5011601;28;1311;-65
2021/01/04 06:31:34;;;;;;;;;;;19.70;56.40;;;;;;5011097;28;1359;-65
2021/01/04 06:34:01;;;;;;;;;;;19.70;56.40;;;;;;4995596;28;1342;-65
2021/01/04 06:36:26;;;;;;;;;;;19.70;56.40;;;;;;4993106;28;1891;-64
2021/01/04 06:38:52;;;;;;;;;;;19.70;56.40;;;;;;5026272;28;1292;-65
2021/01/04 06:41:28;;;;;;;;;;;19.70;56.40;;;;;;5016019;28;1402;-65
2021/01/04 06:43:53;;;;;;;;;;;19.70;56.40;;;;;;5013112;28;1361;-65
2021/01/04 06:46:28;;;;;;;;;;;19.70;56.40;;;;;;4998674;28;1231;-67
2021/01/04 06:49:11;;;;;;;;;;;19.70;56.40;;;;;;5011333;28;1348;-65
2021/01/04 06:51:37;;;;;;;;;;;19.70;56.40;;;;;;4992393;28;2290;-67
2021/01/04 06:54:14;;;;;;;;;;;19.70;56.40;;;;;;5004459;28;1372;-66
2021/01/04 06:56:51;;;;;;;;;;;19.70;56.40;;;;;;5026736;28;1971;-66
2021/01/04 06:59:26;;;;;;;;;;;19.70;56.40;;;;;;4985761;28;1097;-66
2021/01/04 07:01:57;;;;;;;;;;;19.70;56.30;;;;;;5030976;28;1353;-67
2021/01/04 07:04:33;;;;;;;;;;;19.70;56.30;;;;;;5015776;28;1298;-66
2021/01/04 07:07:09;;;;;;;;;;;19.80;56.40;;;;;;5015906;28;1317;-66
2021/01/04 07:09:53;;;;;;;;;;;19.70;56.40;;;;;;5016431;28;1302;-66
2021/01/04 07:12:28;;;;;;;;;;;19.80;56.40;;;;;;5035283;28;1276;-66
2021/01/04 07:15:02;;;;;;;;;;;19.70;56.30;;;;;;4999092;28;1333;-66
2021/01/04 07:17:27;;;;;;;;;;;19.70;56.30;;;;;;5034168;28;1948;-66
2021/01/04 07:20:22;;;;;;;;;;;19.70;56.20;;;;;;5034987;28;1312;-66
2021/01/04 07:23:06;;;;;;;;;;;19.80;56.30;;;;;;4964020;28;1436;-68
2021/01/04 07:25:35;;;;;;;;;;;19.70;56.20;;;;;;5022961;28;1071;-67
2021/01/04 07:28:05;;;;;;;;;;;19.70;56.10;;;;;;5020566;28;1180;-66
2021/01/04 07:30:42;;;;;;;;;;;19.70;56.10;;;;;;5016920;28;1052;-66
2021/01/04 07:33:37;;;;;;;;;;;19.70;56.10;;;;;;5027142;28;1350;-68
2021/01/04 07:36:02;;;;;;;;;;;19.70;56.10;;;;;;5005999;28;1965;-65
2021/01/04 07:38:47;;;;;;;;;;;19.70;56.00;;;;;;5023358;28;1163;-67
2021/01/04 07:41:31;;;;;;;;;;;19.70;56.10;;;;;;5001930;28;1031;-67
2021/01/04 07:44:15;;;;;;;;;;;19.70;56.00;;;;;;5030890;28;1351;-66
2021/01/04 07:46:59;;;;;;;;;;;19.70;56.00;;;;;;5033936;28;1560;-66
2021/01/04 07:49:43;;;;;;;;;;;19.70;56.00;;;;;;5015318;28;1343;-65
2021/01/04 07:52:09;;;;;;;;;;;19.70;56.00;;;;;;5014859;28;1981;-65
2021/01/04 07:54:40;;;;;;;;;;;19.70;56.00;;;;;;5008216;28;1464;-66
2021/01/04 07:57:24;;;;;;;;;;;19.70;56.00;;;;;;5011999;28;1968;-65
2021/01/04 08:00:08;;;;;;;;;;;19.70;56.00;;;;;;5014656;28;1306;-65
2021/01/04 08:02:34;;;;;;;;;;;19.70;56.00;;;;;;5007756;28;923;-65
2021/01/04 08:05:11;;;;;;;;;;;19.70;56.00;;;;;;5014032;28;1300;-65
2021/01/04 08:07:45;;;;;;;;;;;19.70;56.00;;;;;;5009739;28;925;-66
2021/01/04 08:10:17;;;;;;;;;;;19.70;56.00;;;;;;5012936;28;1360;-65
2021/01/04 08:12:43;;;;;;;;;;;19.70;55.90;;;;;;5014243;28;1280;-66
2021/01/04 08:15:20;;;;;;;;;;;19.70;55.90;;;;;;5007754;28;1405;-66
2021/01/04 08:17:47;;;;;;;;;;;19.70;55.90;;;;;;4994114;28;1966;-65
2021/01/04 08:20:13;;;;;;;;;;;19.70;55.90;;;;;;4985101;28;1081;-65
2021/01/04 08:22:42;;;;;;;;;;;19.70;55.90;;;;;;5000848;28;1183;-65
2021/01/04 08:25:09;;;;;;;;;;;19.70;55.90;;;;;;5012330;28;1294;-65
2021/01/04 08:27:53;;;;;;;;;;;19.70;55.90;;;;;;5011725;28;1294;-65
2021/01/04 08:30:20;;;;;;;;;;;19.70;55.90;;;;;;5004673;28;1281;-65
2021/01/04 08:32:49;;;;;;;;;;;19.70;55.90;;;;;;4999152;28;1263;-65
2021/01/04 08:35:17;;;;;;;;;;;19.70;55.90;;;;;;5013505;28;1283;-67
2021/01/04 08:37:43;;;;;;;;;;;19.70;55.90;;;;;;5012058;28;1902;-66
2021/01/04 08:40:18;;;;;;;;;;;19.70;55.90;;;;;;5012492;28;1305;-65
2021/01/04 08:42:44;;;;;;;;;;;19.70;55.90;;;;;;5000320;28;1354;-65
2021/01/04 08:45:10;;;;;;;;;;;19.70;55.90;;;;;;5012128;28;1352;-65
2021/01/04 08:47:36;;;;;;;;;;;19.70;55.90;;;;;;5011939;28;1298;-65
2021/01/04 08:50:04;;;;;;;;;;;19.70;55.90;;;;;;5001651;28;1085;-65
2021/01/04 08:52:37;;;;;;;;;;;19.70;55.90;;;;;;5000820;28;1407;-66
2021/01/04 08:55:02;;;;;;;;;;;19.70;55.90;;;;;;4982184;28;1268;-67
2021/01/04 08:57:37;;;;;;;;;;;19.70;55.90;;;;;;4993610;28;1914;-65
2021/01/04 09:00:05;;;;;;;;;;;19.70;55.90;;;;;;4993041;28;1346;-64
2021/01/04 09:02:34;;;;;;;;;;;19.70;55.90;;;;;;4976091;28;1947;-66
2021/01/04 09:05:00;;;;;;;;;;;19.70;55.90;;;;;;4992323;28;1332;-66
2021/01/04 09:07:27;;;;;;;;;;;19.70;55.90;;;;;;4996121;28;1390;-66
2021/01/04 09:09:56;;;;;;;;;;;19.70;55.90;;;;;;5011755;28;1420;-65
2021/01/04 09:12:21;;;;;;;;;;;19.70;55.90;;;;;;4995722;28;1403;-65
2021/01/04 09:14:52;;;;;;;;;;;19.70;55.90;;;;;;5012798;28;1281;-66
2021/01/04 09:17:26;;;;;;;;;;;19.70;55.90;;;;;;5011477;28;1953;-65
2021/01/04 09:20:06;;;;;;;;;;;19.70;55.90;;;;;;5013105;28;1248;-66
2021/01/04 09:22:31;;;;;;;;;;;19.70;55.90;;;;;;4995432;28;1643;-65
2021/01/04 09:24:56;;;;;;;;;;;19.70;56.00;;;;;;5012596;28;1265;-66
2021/01/04 09:27:26;;;;;;;;;;;19.70;55.90;;;;;;4997396;28;2206;-66
2021/01/04 09:29:52;;;;;;;;;;;19.70;55.90;;;;;;5012856;28;1373;-66
2021/01/04 09:32:20;;;;;;;;;;;19.70;55.90;;;;;;4994228;28;1383;-66
2021/01/04 09:34:45;;;;;;;;;;;19.70;55.90;;;;;;5009620;28;1711;-65
2021/01/04 09:37:12;;;;;;;;;;;19.70;55.90;;;;;;4991741;28;1894;-65
2021/01/04 09:39:38;;;;;;;;;;;19.70;55.90;;;;;;5002546;28;1669;-67
2021/01/04 09:42:04;;;;;;;;;;;19.70;55.90;;;;;;5000585;28;1672;-65
2021/01/04 09:44:30;;;;;;;;;;;19.80;55.90;;;;;;5012500;28;1677;-65
2021/01/04 09:47:16;;;;;;;;;;;19.70;55.90;;;;;;4997681;28;1546;-65
2021/01/04 09:49:42;;;;;;;;;;;19.70;55.90;;;;;;5012657;28;1379;-65
2021/01/04 09:52:08;;;;;;;;;;;19.80;55.90;;;;;;4994798;28;1711;-65
2021/01/04 09:54:37;;;;;;;;;;;19.80;55.90;;;;;;4988118;28;1351;-67
2021/01/04 09:57:07;;;;;;;;;;;19.80;55.90;;;;;;4997040;28;1922;-65
2021/01/04 09:59:36;;;;;;;;;;;19.80;55.80;;;;;;5020881;28;1288;-66
2021/01/04 10:02:02;;;;;;;;;;;19.80;55.80;;;;;;5012486;28;1273;-65
2021/01/04 10:04:37;;;;;;;;;;;19.80;55.80;;;;;;5012093;28;1190;-65
2021/01/04 10:07:04;;;;;;;;;;;19.80;55.80;;;;;;4995338;28;1341;-66
2021/01/04 10:09:30;;;;;;;;;;;19.80;55.80;;;;;;5012415;28;1428;-65
2021/01/04 10:11:59;;;;;;;;;;;19.80;55.80;;;;;;5014076;28;1377;-65
2021/01/04 10:14:24;;;;;;;;;;;19.80;55.50;;;;;;5002009;28;1289;-67
2021/01/04 10:16:51;;;;;;;;;;;19.80;55.50;;;;;;5015969;28;1902;-68
2021/01/04 10:19:24;;;;;;;;;;;19.90;55.50;;;;;;4998915;28;1372;-67
2021/01/04 10:21:54;;;;;;;;;;;20.00;55.40;;;;;;4998954;28;1257;-68
2021/01/04 10:24:22;;;;;;;;;;;20.00;55.20;;;;;;4998202;28;1369;-67
2021/01/04 10:26:48;;;;;;;;;;;20.10;55.10;;;;;;4998166;28;1352;-67
2021/01/04 10:29:14;;;;;;;;;;;20.30;54.90;;;;;;4998885;28;1367;-65
2021/01/04 10:31:40;;;;;;;;;;;20.40;54.70;;;;;;4998712;28;1333;-67
2021/01/04 10:34:09;;;;;;;;;;;20.50;54.40;;;;;;5015847;28;1746;-67
2021/01/04 10:36:35;;;;;;;;;;;20.60;54.20;;;;;;4997648;28;1906;-66
2021/01/04 10:39:02;;;;;;;;;;;20.70;53.90;;;;;;5015850;28;1280;-67
2021/01/04 10:41:28;;;;;;;;;;;20.90;53.70;;;;;;5015798;28;1356;-66
2021/01/04 10:44:07;;;;;;;;;;;20.90;53.50;;;;;;5015755;28;1365;-67
2021/01/04 10:46:37;;;;;;;;;;;21.00;53.30;;;;;;4997674;28;1296;-68
2021/01/04 10:49:22;;;;;;;;;;;21.10;53.10;;;;;;4998566;28;1363;-67
2021/01/04 10:51:49;;;;;;;;;;;21.20;53.00;;;;;;5015099;28;1211;-67
2021/01/04 10:54:15;;;;;;;;;;;21.20;52.80;;;;;;4997864;28;1323;-67
2021/01/04 10:56:42;;;;;;;;;;;21.20;52.80;;;;;;4997191;28;1918;-66
2021/01/04 10:59:13;;;;;;;;;;;21.30;52.80;;;;;;5027201;28;1156;-65
2021/01/04 11:01:40;;;;;;;;;;;21.30;52.70;;;;;;4998155;28;1354;-67
2021/01/04 11:04:07;;;;;;;;;;;21.30;52.70;;;;;;4997945;28;1381;-67
2021/01/04 11:06:34;;;;;;;;;;;21.30;52.60;;;;;;4997521;28;1404;-67
2021/01/04 11:09:09;;;;;;;;;;;21.30;52.60;;;;;;5015506;28;1132;-67
2021/01/04 11:11:36;;;;;;;;;;;21.40;52.60;;;;;;5015524;28;1301;-68
2021/01/04 11:14:08;;;;;;;;;;;21.40;52.50;;;;;;5018325;28;1264;-68
2021/01/04 11:17:03;;;;;;;;;;;21.40;52.50;;;;;;4997613;28;1899;-68
2021/01/04 11:19:29;;;;;;;;;;;21.50;52.40;;;;;;5001905;28;1264;-69
2021/01/04 11:21:55;;;;;;;;;;;21.50;52.40;;;;;;4997535;28;1140;-68
2021/01/04 11:24:20;;;;;;;;;;;21.50;52.40;;;;;;5014671;28;1359;-68
2021/01/04 11:26:46;;;;;;;;;;;21.50;52.30;;;;;;5015096;28;1325;-67
2021/01/04 11:29:11;;;;;;;;;;;21.50;52.30;;;;;;4997670;28;1349;-68
2021/01/04 11:31:37;;;;;;;;;;;21.50;52.30;;;;;;5014879;28;1286;-68
2021/01/04 11:34:03;;;;;;;;;;;21.50;52.30;;;;;;5014248;28;1333;-68
2021/01/04 11:36:28;;;;;;;;;;;21.50;52.40;;;;;;5014902;28;1911;-66
2021/01/04 11:38:53;;;;;;;;;;;21.50;52.30;;;;;;5015132;28;1425;-68
2021/01/04 11:41:19;;;;;;;;;;;21.50;52.40;;;;;;5014915;28;1109;-69
2021/01/04 11:43:47;;;;;;;;;;;21.50;52.30;;;;;;5014000;28;1285;-69
2021/01/04 11:46:13;;;;;;;;;;;21.50;52.30;;;;;;5014583;28;1193;-68
2021/01/04 11:48:38;;;;;;;;;;;21.50;52.30;;;;;;5014673;28;1309;-70
2021/01/04 11:51:04;;;;;;;;;;;21.50;52.30;;;;;;5014654;28;1263;-69
2021/01/04 11:56:02;;;;;;;;;;;21.50;52.30;;;;;;5047068;28;1902;-68
2021/01/04 11:58:27;;;;;;;;;;;21.50;52.40;;;;;;5065830;28;1224;-68
2021/01/04 12:00:53;;;;;;;;;;;21.40;52.30;;;;;;5054428;28;1367;-68
2021/01/04 12:03:19;;;;;;;;;;;21.40;52.40;;;;;;5036327;28;1320;-68
2021/01/04 12:05:44;;;;;;;;;;;21.40;52.40;;;;;;5053699;28;1327;-68
2021/01/04 12:08:10;;;;;;;;;;;21.40;52.50;;;;;;5054149;28;1383;-68
2021/01/04 12:10:35;;;;;;;;;;;21.40;52.50;;;;;;5054252;28;1112;-68
2021/01/04 12:13:01;;;;;;;;;;;21.40;52.50;;;;;;5056399;28;1092;-68
2021/01/04 12:15:26;;;;;;;;;;;21.30;52.50;;;;;;5035532;28;1336;-68
2021/01/04 12:17:52;;;;;;;;;;;21.30;52.50;;;;;;5053639;28;1971;-68
2021/01/04 12:20:17;;;;;;;;;;;21.30;52.60;;;;;;5036331;28;1351;-68
2021/01/04 12:22:43;;;;;;;;;;;21.30;52.60;;;;;;5036085;28;1322;-69
2021/01/04 12:25:09;;;;;;;;;;;21.30;52.70;;;;;;5035339;28;1627;-69
2021/01/04 12:27:34;;;;;;;;;;;21.20;53.40;;;;;;5035216;28;1169;-68
2021/01/04 12:30:00;;;;;;;;;;;21.20;52.80;;;;;;5053631;28;1300;-69
2021/01/04 12:32:25;;;;;;;;;;;21.20;52.80;;;;;;5035857;28;1360;-69
2021/01/04 12:34:51;;;;;;;;;;;21.20;53.40;;;;;;5052559;28;1304;-68
2021/01/04 12:37:16;;;;;;;;;;;21.20;52.90;;;;;;5034881;28;1895;-69
2021/01/04 12:39:42;;;;;;;;;;;21.10;52.90;;;;;;5053534;28;1317;-68
2021/01/04 12:42:08;;;;;;;;;;;21.10;52.90;;;;;;5053148;28;1154;-69
2021/01/04 12:44:33;;;;;;;;;;;21.10;53.00;;;;;;5053359;28;1406;-68
2021/01/04 12:46:59;;;;;;;;;;;21.10;53.00;;;;;;5035772;28;1409;-69
2021/01/04 12:49:25;;;;;;;;;;;21.00;52.90;;;;;;5053234;28;1402;-69
2021/01/04 12:51:51;;;;;;;;;;;21.00;53.00;;;;;;5035205;28;1284;-69
2021/01/04 12:54:17;;;;;;;;;;;21.00;53.00;;;;;;5035120;28;1355;-69
2021/01/04 12:56:46;;;;;;;;;;;21.00;53.00;;;;;;5052750;28;1902;-69
2021/01/04 12:59:12;;;;;;;;;;;21.00;53.10;;;;;;5041682;28;1334;-69
2021/01/04 13:01:38;;;;;;;;;;;21.00;53.10;;;;;;5053364;28;1324;-68
2021/01/04 13:04:04;;;;;;;;;;;20.90;53.10;;;;;;5034628;28;1389;-69
2021/01/04 13:06:29;;;;;;;;;;;20.90;53.10;;;;;;5052883;28;1358;-69
2021/01/04 13:08:55;;;;;;;;;;;20.90;53.10;;;;;;5053409;28;1296;-68
2021/01/04 13:11:20;;;;;;;;;;;20.90;53.20;;;;;;5053120;28;1351;-67
2021/01/04 13:13:46;;;;;;;;;;;20.90;53.20;;;;;;5055335;28;1352;-68
2021/01/04 13:16:11;;;;;;;;;;;20.90;53.20;;;;;;5038559;28;1966;-66
2021/01/04 13:18:37;;;;;;;;;;;20.90;53.20;;;;;;5051065;28;1101;-68
2021/01/04 13:21:02;;;;;;;;;;;20.80;53.20;;;;;;5050589;28;1137;-69
2021/01/04 13:23:28;;;;;;;;;;;20.90;53.30;;;;;;5050510;28;1312;-69
2021/01/04 13:25:53;;;;;;;;;;;20.80;53.30;;;;;;5050933;28;1284;-68
2021/01/04 13:28:18;;;;;;;;;;;20.80;53.30;;;;;;5051276;28;1338;-68
2021/01/04 13:30:44;;;;;;;;;;;20.80;53.40;;;;;;5051613;28;1354;-69
2021/01/04 13:33:09;;;;;;;;;;;20.80;53.40;;;;;;5051496;28;1047;-69
2021/01/04 13:35:35;;;;;;;;;;;20.70;53.40;;;;;;5033311;28;1380;-68
2021/01/04 13:38:00;;;;;;;;;;;20.70;53.50;;;;;;5050787;28;1951;-68
2021/01/04 13:40:26;;;;;;;;;;;20.70;53.50;;;;;;5050389;28;1017;-69
2021/01/04 13:42:51;;;;;;;;;;;20.70;53.50;;;;;;5051521;28;914;-69
2021/01/04 13:45:17;;;;;;;;;;;20.70;53.50;;;;;;5033190;28;1332;-67
2021/01/04 13:47:42;;;;;;;;;;;20.70;53.50;;;;;;5038581;28;1381;-66
2021/01/04 13:50:10;;;;;;;;;;;20.60;53.50;;;;;;5051662;28;1263;-67
2021/01/04 13:52:36;;;;;;;;;;;20.60;53.60;;;;;;5030460;28;1849;-67
2021/01/04 13:55:02;;;;;;;;;;;20.60;53.60;;;;;;5047501;28;1478;-67
2021/01/04 13:57:27;;;;;;;;;;;20.60;53.70;;;;;;5058230;28;1906;-67
2021/01/04 13:59:53;;;;;;;;;;;20.60;53.70;;;;;;5037322;28;1668;-67
2021/01/04 14:02:18;;;;;;;;;;;20.60;54.20;;;;;;5052661;28;1763;-67
2021/01/04 14:04:47;;;;;;;;;;;20.60;53.50;;;;;;5050615;28;1577;-67
2021/01/04 14:07:15;;;;;;;;;;;20.50;49.90;;;;;;5052318;28;1622;-67
2021/01/04 14:09:40;;;;;;;;;;;20.50;52.30;;;;;;5051851;28;1453;-68
2021/01/04 14:12:06;;;;;;;;;;;20.50;51.90;;;;;;5052387;28;1601;-67
2021/01/04 14:14:31;;;;;;;;;;;20.40;51.40;;;;;;5055532;28;1474;-67
2021/01/04 14:16:57;;;;;;;;;;;20.40;50.50;;;;;;5052121;28;1949;-67
2021/01/04 14:19:23;;;;;;;;;;;20.30;49.70;;;;;;5034282;28;1592;-67
2021/01/04 14:21:49;;;;;;;;;;;20.30;49.40;;;;;;5052561;28;1009;-67
2021/01/04 14:24:14;;;;;;;;;;;20.30;49.50;;;;;;5033550;28;1228;-67
2021/01/04 14:26:40;;;;;;;;;;;20.30;49.50;;;;;;5051864;28;2394;-67
2021/01/04 14:29:06;;;;;;;;;;;20.30;49.90;;;;;;5052217;28;1646;-67
2021/01/04 14:31:42;;;;;;;;;;;20.30;50.30;;;;;;5052188;28;1561;-67
2021/01/04 14:34:08;;;;;;;;;;;20.30;50.40;;;;;;5033552;28;1700;-67
2021/01/04 14:36:33;;;;;;;;;;;20.30;50.60;;;;;;5033946;28;1894;-67
2021/01/04 14:38:59;;;;;;;;;;;20.30;50.70;;;;;;5034045;28;1692;-67
2021/01/04 14:41:24;;;;;;;;;;;20.30;51.00;;;;;;5051933;28;1389;-67
2021/01/04 14:43:50;;;;;;;;;;;20.30;51.20;;;;;;5033726;28;1635;-67
2021/01/04 14:46:19;;;;;;;;;;;20.30;51.50;;;;;;5051564;28;1300;-67
2021/01/04 14:48:45;;;;;;;;;;;20.30;51.70;;;;;;5034419;28;1703;-67